createdAt,value
2023-03-28T00:02:08.343Z,98333.53
2023-03-28T00:07:10.422Z,98324.41
2023-03-28T00:12:12.535Z,98328.00
2023-03-28T00:17:14.380Z,98320.28
2023-03-28T00:22:16.283Z,98330.38
2023-03-28T00:27:18.469Z,98317.47
2023-03-28T00:32:20.550Z,98329.97
2023-03-28T00:37:22.792Z,98320.03
2023-03-28T00:42:24.743Z,98331.25
2023-03-28T00:47:30.855Z,98324.41
2023-03-28T00:52:40.140Z,98315.28
2023-03-28T00:57:43.279Z,98311.50
2023-03-28T01:02:51.235Z,98312.28
2023-03-28T01:07:58.985Z,98299.19
2023-03-28T01:13:03.149Z,98318.47
2023-03-28T01:18:10.812Z,98324.81
2023-03-28T01:23:50.759Z,98313.47
2023-03-28T01:28:56.520Z,98311.28
2023-03-28T01:34:31.574Z,98326.88
2023-03-28T01:39:50.497Z,98317.22
2023-03-28T01:45:07.975Z,98337.09
2023-03-28T01:50:18.440Z,98351.38
2023-03-28T01:55:27.213Z,98343.44
2023-03-28T02:00:43.394Z,98350.38
2023-03-28T02:05:50.050Z,98357.31
2023-03-28T02:10:55.308Z,98350.19
2023-03-28T02:16:09.776Z,98365.31
2023-03-28T02:22:20.131Z,98369.84
2023-03-28T02:28:02.595Z,98364.78
2023-03-28T02:33:37.811Z,98359.41
2023-03-28T02:38:43.423Z,98363.84
2023-03-28T02:44:04.220Z,98357.22
2023-03-28T02:49:19.788Z,98359.22
2023-03-28T02:54:21.584Z,98367.06
2023-03-28T02:59:54.077Z,98361.69
2023-03-28T03:04:57.836Z,98370.47
2023-03-28T03:10:00.940Z,98380.28
2023-03-28T03:15:07.364Z,98376.63
2023-03-28T03:20:33.740Z,98365.22
2023-03-28T03:25:36.793Z,98369.91
2023-03-28T03:30:54.492Z,98381.59
2023-03-28T03:36:17.305Z,98385.56
2023-03-28T03:41:19.439Z,98427.22
2023-03-28T03:46:21.465Z,98430.31
2023-03-28T03:51:24.734Z,98443.50
2023-03-28T03:56:29.792Z,98451.72
2023-03-28T04:01:34.073Z,98438.78
2023-03-28T04:06:59.221Z,98449.06
2023-03-28T04:12:02.456Z,98459.28
2023-03-28T04:17:06.822Z,98468.31
2023-03-28T04:22:08.867Z,98478.66
2023-03-28T04:27:12.086Z,98490.59
2023-03-28T04:32:19.060Z,98494.84
2023-03-28T04:37:38.590Z,98503.41
2023-03-28T04:42:42.649Z,98512.44
2023-03-28T04:48:00.490Z,98518.25
2023-03-28T04:53:02.342Z,98539.88
2023-03-28T04:58:05.262Z,98550.00
2023-03-28T05:03:13.488Z,98564.19
2023-03-28T05:08:29.927Z,98556.59
2023-03-28T05:13:31.876Z,98568.59
2023-03-28T05:18:42.252Z,98584.34
2023-03-28T05:23:44.118Z,98589.69
2023-03-28T05:28:57.058Z,98606.84
2023-03-28T05:33:59.240Z,98604.16
2023-03-28T05:39:11.162Z,98619.69
2023-03-28T05:44:15.281Z,98631.41
2023-03-28T05:49:41.068Z,98638.31
2023-03-28T05:54:50.666Z,98649.44
2023-03-28T05:59:56.026Z,98651.63
2023-03-28T06:05:00.311Z,98669.81
2023-03-28T06:10:02.816Z,98677.78
2023-03-28T06:15:08.156Z,98686.81
2023-03-28T06:20:14.138Z,98693.41
2023-03-28T06:25:16.620Z,98692.38
2023-03-28T06:30:18.630Z,98697.16
2023-03-28T06:35:25.094Z,98713.63
2023-03-28T06:40:27.437Z,98715.34
2023-03-28T06:45:29.898Z,98722.25
2023-03-28T06:50:50.390Z,98736.88
2023-03-28T06:55:55.058Z,98729.66
2023-03-28T07:00:59.686Z,98736.47
2023-03-28T07:06:20.037Z,98741.22
2023-03-28T07:11:22.240Z,98741.44
2023-03-28T07:16:26.583Z,98761.66
2023-03-28T07:21:28.504Z,98772.44
2023-03-28T07:26:32.931Z,98788.53
2023-03-28T07:31:35.902Z,98789.97
2023-03-28T07:36:39.777Z,98783.81
2023-03-28T07:41:47.996Z,98804.06
2023-03-28T07:46:51.366Z,98805.69
2023-03-28T07:51:53.286Z,98809.25
2023-03-28T07:56:55.073Z,98826.69
2023-03-28T08:02:15.824Z,98808.75
2023-03-28T08:07:19.151Z,98824.50
2023-03-28T08:12:22.523Z,98820.16
2023-03-28T08:17:24.857Z,98836.06
2023-03-28T08:22:27.874Z,98838.13
2023-03-28T08:27:50.251Z,98835.69
2023-03-28T08:32:52.981Z,98839.84
2023-03-28T08:37:55.948Z,98849.44
2023-03-28T08:43:21.368Z,98859.28
2023-03-28T08:48:40.297Z,98852.28
2023-03-28T08:53:49.906Z,98862.84
2023-03-28T08:59:12.782Z,98867.69
2023-03-28T09:04:35.311Z,98870.72
2023-03-28T09:10:12.758Z,98879.47
2023-03-28T09:15:36.192Z,98882.03
2023-03-28T09:20:43.087Z,98886.06
2023-03-28T09:26:15.153Z,98900.59
2023-03-28T09:31:24.618Z,98895.44
2023-03-28T09:36:45.369Z,98888.84
2023-03-28T09:41:59.762Z,98901.81
2023-03-28T09:47:20.932Z,98901.81
2023-03-28T09:52:35.411Z,98904.69
2023-03-28T09:58:08.411Z,98908.19
2023-03-28T10:03:34.980Z,98905.66
2023-03-28T10:08:42.445Z,98909.75
2023-03-28T10:14:06.199Z,98920.06
2023-03-28T10:19:14.063Z,98913.50
2023-03-28T10:24:29.953Z,98918.91
2023-03-28T10:29:37.202Z,98939.00
2023-03-28T10:34:39.729Z,98932.34
2023-03-28T10:40:22.509Z,98919.53
2023-03-28T10:45:45.475Z,98918.16
2023-03-28T10:50:54.969Z,98921.88
2023-03-28T10:56:00.590Z,98917.47
2023-03-28T11:01:22.290Z,98942.66
2023-03-28T11:06:43.713Z,98922.09
2023-03-28T11:11:59.019Z,98927.97
2023-03-28T11:17:28.774Z,98925.25
2023-03-28T11:22:49.726Z,98936.38
2023-03-28T11:28:00.672Z,98926.41
2023-03-28T11:33:29.342Z,98929.41
2023-03-28T11:38:49.476Z,98926.16
2023-03-28T11:43:53.776Z,98929.28
2023-03-28T11:49:18.775Z,98927.22
2023-03-28T11:54:32.714Z,98920.38
2023-03-28T12:00:31.906Z,98912.47
2023-03-28T12:06:02.586Z,98913.66
2023-03-28T12:11:37.490Z,98903.50
2023-03-28T12:16:48.213Z,98923.53
2023-03-28T12:22:01.894Z,98922.72
2023-03-28T12:27:43.283Z,98906.91
2023-03-28T12:33:47.227Z,98921.19
2023-03-28T12:39:24.934Z,98908.50
2023-03-28T12:44:37.251Z,98905.13
2023-03-28T12:49:45.590Z,98906.88
2023-03-28T12:55:02.026Z,98898.72
2023-03-28T13:00:26.476Z,98907.75
2023-03-28T13:05:48.148Z,98916.19
2023-03-28T13:11:02.255Z,98912.75
2023-03-28T13:16:15.274Z,98911.66
2023-03-28T13:21:41.879Z,98911.94
2023-03-28T13:27:12.996Z,98908.78
2023-03-28T13:32:17.338Z,98914.53
2023-03-28T13:37:24.914Z,98905.91
2023-03-28T13:42:29.218Z,98906.22
2023-03-28T13:47:36.410Z,98916.28
2023-03-28T13:52:38.362Z,98911.81
2023-03-28T13:57:40.315Z,98913.53
2023-03-28T14:02:50.842Z,98908.41
2023-03-28T14:07:54.459Z,98906.16
2023-03-28T14:13:02.166Z,98905.88
2023-03-28T14:18:04.343Z,98910.03
2023-03-28T14:23:07.158Z,98917.50
2023-03-28T14:28:09.261Z,98908.91
2023-03-28T14:33:13.456Z,98908.19
2023-03-28T14:38:35.297Z,98897.19
2023-03-28T14:43:37.276Z,98893.38
2023-03-28T14:48:41.854Z,98903.44
2023-03-28T14:53:47.445Z,98907.16
2023-03-28T14:58:50.908Z,98903.94
2023-03-28T15:04:06.679Z,98904.84
2023-03-28T15:09:30.332Z,98907.28
2023-03-28T15:14:38.032Z,98915.09
2023-03-28T15:19:41.584Z,98921.69
2023-03-28T15:24:44.922Z,98910.50
2023-03-28T15:29:47.107Z,98922.13
2023-03-28T15:34:56.296Z,98922.44
2023-03-28T15:40:32.441Z,98920.84
2023-03-28T15:45:40.965Z,98918.00
2023-03-28T15:50:48.515Z,98914.66
2023-03-28T15:55:50.472Z,98923.69
2023-03-28T16:00:53.809Z,98918.81
2023-03-28T16:06:09.862Z,98926.59
2023-03-28T16:11:23.440Z,98932.28
2023-03-28T16:17:10.424Z,98936.72
2023-03-28T16:22:22.189Z,98933.53
2023-03-28T16:27:23.973Z,98939.84
2023-03-28T16:32:26.086Z,98942.03
2023-03-28T16:37:27.879Z,98936.59
2023-03-28T16:42:30.865Z,98942.28
2023-03-28T16:47:32.693Z,98934.31
2023-03-28T16:52:41.150Z,98938.28
2023-03-28T16:57:43.859Z,98943.53
2023-03-28T17:02:47.725Z,98934.31
2023-03-28T17:07:49.626Z,98933.34
2023-03-28T17:12:51.423Z,98939.31
2023-03-28T17:17:53.206Z,98933.78
2023-03-28T17:22:55.594Z,98928.16
2023-03-28T17:27:57.357Z,98937.34
2023-03-28T17:32:59.198Z,98936.75
2023-03-28T17:38:01.076Z,98936.03
2023-03-28T17:43:04.208Z,98931.75
2023-03-28T17:48:06.276Z,98939.25
2023-03-28T17:53:08.083Z,98936.88
2023-03-28T17:58:10.103Z,98940.53
2023-03-28T18:03:11.954Z,98941.31
2023-03-28T18:08:31.056Z,98928.94
2023-03-28T18:13:33.990Z,98929.56
2023-03-28T18:18:36.458Z,98924.63
2023-03-28T18:23:38.700Z,98934.75
2023-03-28T18:28:41.052Z,98931.09
2023-03-28T18:33:43.938Z,98940.28
2023-03-28T18:38:46.642Z,98937.09
2023-03-28T18:43:48.467Z,98943.09
2023-03-28T18:48:50.574Z,98939.75
2023-03-28T18:53:53.993Z,98932.59
2023-03-28T18:58:57.337Z,98942.22
2023-03-28T19:03:59.269Z,98936.66
2023-03-28T19:09:01.126Z,98935.66
2023-03-28T19:14:02.955Z,98931.34
2023-03-28T19:19:04.813Z,98934.94
2023-03-28T19:24:07.038Z,98927.59
2023-03-28T19:29:08.866Z,98932.63
2023-03-28T19:34:16.966Z,98925.47
2023-03-28T19:39:18.970Z,98929.09
2023-03-28T19:44:20.806Z,98930.31
2023-03-28T19:49:22.595Z,98929.31
2023-03-28T19:54:25.773Z,98923.75
2023-03-28T19:59:27.554Z,98927.38
2023-03-28T20:04:29.386Z,98924.78
2023-03-28T20:09:32.537Z,98924.41
2023-03-28T20:14:36.572Z,98926.63
2023-03-28T20:19:39.560Z,98915.34
2023-03-28T20:24:41.997Z,98909.19
2023-03-28T20:29:44.606Z,98900.50
2023-03-28T20:34:47.583Z,98898.31
2023-03-28T20:39:50.946Z,98891.03
2023-03-28T20:44:54.259Z,98880.56
2023-03-28T20:49:59.598Z,98874.38
2023-03-28T20:55:04.046Z,98870.13
2023-03-28T21:00:08.276Z,98860.06
2023-03-28T21:05:12.620Z,98859.69
2023-03-28T21:10:15.574Z,98847.97
2023-03-28T21:15:17.585Z,98854.53
2023-03-28T21:20:19.471Z,98856.06
2023-03-28T21:25:21.430Z,98868.09
2023-03-28T21:30:23.248Z,98848.97
2023-03-28T21:35:25.104Z,98855.75
2023-03-28T21:40:27.136Z,98852.88
2023-03-28T21:45:29.325Z,98849.69
2023-03-28T21:50:31.406Z,98843.13
2023-03-28T21:55:33.219Z,98844.84
2023-03-28T22:00:35.288Z,98849.22
2023-03-28T22:05:43.915Z,98852.00
2023-03-28T22:10:54.314Z,98844.56
2023-03-28T22:16:00.056Z,98836.09
2023-03-28T22:21:03.492Z,98824.19
2023-03-28T22:26:09.206Z,98802.13
2023-03-28T22:31:11.268Z,98804.75
2023-03-28T22:36:13.230Z,98815.34
2023-03-28T22:41:15.230Z,98809.34
2023-03-28T22:46:17.051Z,98817.41
2023-03-28T22:51:18.825Z,98814.16
2023-03-28T22:56:20.758Z,98810.84
2023-03-28T23:01:26.019Z,98798.91
2023-03-28T23:06:28.782Z,98796.13
2023-03-28T23:11:30.626Z,98798.97
2023-03-28T23:16:33.157Z,98788.22
2023-03-28T23:21:36.919Z,98789.34
2023-03-28T23:26:38.671Z,98795.00
2023-03-28T23:31:41.019Z,98790.13
2023-03-28T23:36:46.294Z,98790.75
2023-03-28T23:41:48.084Z,98794.09
2023-03-28T23:46:50.275Z,98787.34
2023-03-28T23:51:53.001Z,98784.66
2023-03-28T23:56:55.077Z,98774.00
